sensor_id;sensor_type;location;lat;lon;timestamp;P1;durP1;ratioP1;P2;durP2;ratioP2
61523;SDS011;47393;38.758;-9.164;2022-08-21T00:01:45;7.80;;;4.30;;
61523;SDS011;47393;38.758;-9.164;2022-08-21T00:03:46;8.20;;;4.50;;
61523;SDS011;47393;38.758;-9.164;2022-08-21T00:05:48;9.50;;;4.13;;
61523;SDS011;47393;38.758;-9.164;2022-08-21T00:07:50;13.70;;;4.53;;
61523;SDS011;47393;38.758;-9.164;2022-08-21T00:09:52;11.32;;;4.53;;
61523;SDS011;47393;38.758;-9.164;2022-08-21T00:11:55;9.02;;;5.07;;
61523;SDS011;47393;38.758;-9.164;2022-08-21T00:13:56;9.05;;;4.68;;
61523;SDS011;47393;38.758;-9.164;2022-08-21T00:16:00;11.02;;;4.78;;
61523;SDS011;47393;38.758;-9.164;2022-08-21T00:18:02;9.73;;;3.55;;
61523;SDS011;47393;38.758;-9.164;2022-08-21T00:20:05;7.75;;;4.47;;
61523;SDS011;47393;38.758;-9.164;2022-08-21T00:22:08;7.57;;;3.67;;
61523;SDS011;47393;38.758;-9.164;2022-08-21T00:24:08;10.15;;;4.38;;
61523;SDS011;47393;38.758;-9.164;2022-08-21T00:26:09;10.57;;;4.80;;
61523;SDS011;47393;38.758;-9.164;2022-08-21T00:28:11;4.65;;;3.65;;
61523;SDS011;47393;38.758;-9.164;2022-08-21T00:30:15;6.53;;;4.13;;
61523;SDS011;47393;38.758;-9.164;2022-08-21T00:32:24;11.60;;;3.90;;
61523;SDS011;47393;38.758;-9.164;2022-08-21T00:34:26;10.15;;;4.63;;
61523;SDS011;47393;38.758;-9.164;2022-08-21T00:36:27;9.60;;;4.63;;
61523;SDS011;47393;38.758;-9.164;2022-08-21T00:38:29;15.63;;;5.05;;
61523;SDS011;47393;38.758;-9.164;2022-08-21T00:40:32;9.48;;;4.65;;
61523;SDS011;47393;38.758;-9.164;2022-08-21T00:42:43;9.68;;;5.07;;
61523;SDS011;47393;38.758;-9.164;2022-08-21T00:44:45;9.98;;;4.95;;
61523;SDS011;47393;38.758;-9.164;2022-08-21T00:46:48;7.35;;;4.65;;
61523;SDS011;47393;38.758;-9.164;2022-08-21T00:48:51;6.33;;;4.90;;
61523;SDS011;47393;38.758;-9.164;2022-08-21T00:50:56;8.55;;;4.25;;
61523;SDS011;47393;38.758;-9.164;2022-08-21T00:53:00;9.88;;;4.72;;
61523;SDS011;47393;38.758;-9.164;2022-08-21T00:55:03;8.20;;;4.13;;
61523;SDS011;47393;38.758;-9.164;2022-08-21T00:57:14;8.40;;;4.18;;
61523;SDS011;47393;38.758;-9.164;2022-08-21T00:59:20;6.47;;;4.13;;
61523;SDS011;47393;38.758;-9.164;2022-08-21T01:01:22;8.35;;;4.88;;
61523;SDS011;47393;38.758;-9.164;2022-08-21T01:03:23;6.28;;;4.15;;
61523;SDS011;47393;38.758;-9.164;2022-08-21T01:05:32;9.57;;;4.47;;
61523;SDS011;47393;38.758;-9.164;2022-08-21T01:07:33;8.52;;;4.47;;
61523;SDS011;47393;38.758;-9.164;2022-08-21T01:09:34;6.93;;;4.15;;
61523;SDS011;47393;38.758;-9.164;2022-08-21T01:11:36;7.22;;;3.88;;
61523;SDS011;47393;38.758;-9.164;2022-08-21T01:13:37;10.07;;;4.53;;
61523;SDS011;47393;38.758;-9.164;2022-08-21T01:15:39;8.82;;;4.13;;
61523;SDS011;47393;38.758;-9.164;2022-08-21T01:17:44;8.60;;;3.95;;
61523;SDS011;47393;38.758;-9.164;2022-08-21T01:19:44;9.05;;;3.80;;
61523;SDS011;47393;38.758;-9.164;2022-08-21T01:21:45;8.13;;;4.10;;
61523;SDS011;47393;38.758;-9.164;2022-08-21T01:23:48;6.88;;;3.70;;
61523;SDS011;47393;38.758;-9.164;2022-08-21T01:25:51;11.25;;;4.00;;
61523;SDS011;47393;38.758;-9.164;2022-08-21T01:27:52;8.00;;;3.55;;
61523;SDS011;47393;38.758;-9.164;2022-08-21T01:30:07;12.00;;;3.70;;
61523;SDS011;47393;38.758;-9.164;2022-08-21T01:32:13;11.20;;;3.97;;
61523;SDS011;47393;38.758;-9.164;2022-08-21T01:34:15;11.27;;;3.60;;
61523;SDS011;47393;38.758;-9.164;2022-08-21T01:36:16;8.90;;;3.90;;
61523;SDS011;47393;38.758;-9.164;2022-08-21T01:38:17;9.73;;;4.22;;
61523;SDS011;47393;38.758;-9.164;2022-08-21T01:40:18;7.90;;;4.10;;
61523;SDS011;47393;38.758;-9.164;2022-08-21T01:42:25;8.98;;;3.83;;
61523;SDS011;47393;38.758;-9.164;2022-08-21T01:44:26;5.50;;;3.78;;
61523;SDS011;47393;38.758;-9.164;2022-08-21T01:46:27;9.05;;;4.15;;
61523;SDS011;47393;38.758;-9.164;2022-08-21T01:48:28;6.97;;;3.45;;
61523;SDS011;47393;38.758;-9.164;2022-08-21T01:50:34;10.45;;;4.20;;
61523;SDS011;47393;38.758;-9.164;2022-08-21T01:52:35;10.23;;;4.35;;
61523;SDS011;47393;38.758;-9.164;2022-08-21T01:54:37;6.20;;;3.75;;
61523;SDS011;47393;38.758;-9.164;2022-08-21T01:56:49;10.25;;;4.15;;
61523;SDS011;47393;38.758;-9.164;2022-08-21T01:58:52;9.35;;;4.22;;
61523;SDS011;47393;38.758;-9.164;2022-08-21T02:00:53;5.03;;;3.40;;
61523;SDS011;47393;38.758;-9.164;2022-08-21T02:02:54;10.05;;;4.25;;
61523;SDS011;47393;38.758;-9.164;2022-08-21T02:04:55;9.13;;;4.15;;
61523;SDS011;47393;38.758;-9.164;2022-08-21T02:06:56;9.43;;;4.70;;
61523;SDS011;47393;38.758;-9.164;2022-08-21T02:08:56;11.43;;;5.22;;
61523;SDS011;47393;38.758;-9.164;2022-08-21T02:10:57;10.82;;;5.00;;
61523;SDS011;47393;38.758;-9.164;2022-08-21T02:12:58;12.68;;;4.68;;
61523;SDS011;47393;38.758;-9.164;2022-08-21T02:15:00;10.55;;;4.95;;
61523;SDS011;47393;38.758;-9.164;2022-08-21T02:17:01;9.65;;;4.70;;
61523;SDS011;47393;38.758;-9.164;2022-08-21T02:19:05;10.23;;;4.80;;
61523;SDS011;47393;38.758;-9.164;2022-08-21T02:21:06;13.68;;;5.03;;
61523;SDS011;47393;38.758;-9.164;2022-08-21T02:23:07;6.30;;;4.20;;
61523;SDS011;47393;38.758;-9.164;2022-08-21T02:25:11;11.57;;;5.30;;
61523;SDS011;47393;38.758;-9.164;2022-08-21T02:27:11;6.60;;;4.03;;
61523;SDS011;47393;38.758;-9.164;2022-08-21T02:29:12;9.23;;;4.28;;
61523;SDS011;47393;38.758;-9.164;2022-08-21T02:31:13;11.07;;;4.47;;
61523;SDS011;47393;38.758;-9.164;2022-08-21T02:33:14;10.18;;;5.25;;
61523;SDS011;47393;38.758;-9.164;2022-08-21T02:35:15;15.90;;;5.18;;
61523;SDS011;47393;38.758;-9.164;2022-08-21T02:37:16;11.40;;;4.68;;
61523;SDS011;47393;38.758;-9.164;2022-08-21T02:39:17;21.60;;;5.05;;
61523;SDS011;47393;38.758;-9.164;2022-08-21T02:41:19;13.65;;;4.63;;
61523;SDS011;47393;38.758;-9.164;2022-08-21T02:43:21;8.40;;;4.68;;
61523;SDS011;47393;38.758;-9.164;2022-08-21T02:45:24;13.57;;;5.03;;
61523;SDS011;47393;38.758;-9.164;2022-08-21T02:47:25;11.05;;;4.75;;
61523;SDS011;47393;38.758;-9.164;2022-08-21T02:49:26;10.95;;;4.30;;
61523;SDS011;47393;38.758;-9.164;2022-08-21T02:51:27;13.32;;;4.85;;
61523;SDS011;47393;38.758;-9.164;2022-08-21T02:53:28;9.23;;;4.43;;
61523;SDS011;47393;38.758;-9.164;2022-08-21T02:55:30;7.88;;;4.25;;
61523;SDS011;47393;38.758;-9.164;2022-08-21T02:57:32;10.63;;;4.68;;
61523;SDS011;47393;38.758;-9.164;2022-08-21T02:59:33;10.65;;;3.95;;
61523;SDS011;47393;38.758;-9.164;2022-08-21T03:01:33;9.95;;;4.10;;
61523;SDS011;47393;38.758;-9.164;2022-08-21T03:03:35;10.52;;;4.35;;
61523;SDS011;47393;38.758;-9.164;2022-08-21T03:05:40;9.57;;;4.50;;
61523;SDS011;47393;38.758;-9.164;2022-08-21T03:07:45;16.58;;;5.30;;
61523;SDS011;47393;38.758;-9.164;2022-08-21T03:09:47;6.68;;;3.90;;
61523;SDS011;47393;38.758;-9.164;2022-08-21T03:11:48;7.07;;;4.05;;
61523;SDS011;47393;38.758;-9.164;2022-08-21T03:13:49;10.02;;;4.32;;
61523;SDS011;47393;38.758;-9.164;2022-08-21T03:15:49;10.68;;;4.30;;
61523;SDS011;47393;38.758;-9.164;2022-08-21T03:17:51;7.25;;;4.13;;
61523;SDS011;47393;38.758;-9.164;2022-08-21T03:19:55;9.43;;;4.00;;
61523;SDS011;47393;38.758;-9.164;2022-08-21T03:21:56;12.45;;;4.50;;
61523;SDS011;47393;38.758;-9.164;2022-08-21T03:23:57;18.15;;;4.70;;
61523;SDS011;47393;38.758;-9.164;2022-08-21T03:25:58;9.70;;;3.88;;
61523;SDS011;47393;38.758;-9.164;2022-08-21T03:27:59;5.93;;;3.70;;
61523;SDS011;47393;38.758;-9.164;2022-08-21T03:30:02;13.15;;;4.05;;
61523;SDS011;47393;38.758;-9.164;2022-08-21T03:32:04;8.95;;;4.25;;
61523;SDS011;47393;38.758;-9.164;2022-08-21T03:34:05;12.32;;;3.90;;
61523;SDS011;47393;38.758;-9.164;2022-08-21T03:36:06;10.98;;;4.63;;
61523;SDS011;47393;38.758;-9.164;2022-08-21T03:38:08;12.82;;;4.72;;
61523;SDS011;47393;38.758;-9.164;2022-08-21T03:40:09;10.80;;;4.32;;
61523;SDS011;47393;38.758;-9.164;2022-08-21T03:42:11;9.65;;;4.10;;
61523;SDS011;47393;38.758;-9.164;2022-08-21T03:44:12;11.43;;;4.35;;
61523;SDS011;47393;38.758;-9.164;2022-08-21T03:46:13;17.58;;;4.78;;
61523;SDS011;47393;38.758;-9.164;2022-08-21T03:48:14;10.80;;;3.97;;
61523;SDS011;47393;38.758;-9.164;2022-08-21T03:50:15;8.38;;;3.85;;
61523;SDS011;47393;38.758;-9.164;2022-08-21T03:52:16;10.57;;;4.00;;
61523;SDS011;47393;38.758;-9.164;2022-08-21T03:54:17;7.90;;;4.07;;
61523;SDS011;47393;38.758;-9.164;2022-08-21T03:56:18;9.43;;;4.43;;
61523;SDS011;47393;38.758;-9.164;2022-08-21T03:58:20;12.63;;;4.22;;
61523;SDS011;47393;38.758;-9.164;2022-08-21T04:00:23;7.72;;;3.53;;
61523;SDS011;47393;38.758;-9.164;2022-08-21T04:02:25;13.90;;;4.75;;
61523;SDS011;47393;38.758;-9.164;2022-08-21T04:04:26;7.22;;;3.58;;
61523;SDS011;47393;38.758;-9.164;2022-08-21T04:06:28;8.73;;;3.47;;
61523;SDS011;47393;38.758;-9.164;2022-08-21T04:08:33;9.15;;;3.55;;
61523;SDS011;47393;38.758;-9.164;2022-08-21T04:10:35;5.22;;;3.20;;
61523;SDS011;47393;38.758;-9.164;2022-08-21T04:12:37;10.40;;;3.97;;
61523;SDS011;47393;38.758;-9.164;2022-08-21T04:14:38;6.80;;;3.35;;
61523;SDS011;47393;38.758;-9.164;2022-08-21T04:16:39;8.20;;;3.42;;
61523;SDS011;47393;38.758;-9.164;2022-08-21T04:18:40;11.95;;;3.53;;
61523;SDS011;47393;38.758;-9.164;2022-08-21T04:20:49;8.30;;;3.38;;
61523;SDS011;47393;38.758;-9.164;2022-08-21T04:22:51;9.77;;;3.40;;
61523;SDS011;47393;38.758;-9.164;2022-08-21T04:24:53;8.25;;;3.50;;
61523;SDS011;47393;38.758;-9.164;2022-08-21T04:26:54;8.93;;;3.30;;
61523;SDS011;47393;38.758;-9.164;2022-08-21T04:28:54;10.55;;;3.40;;
61523;SDS011;47393;38.758;-9.164;2022-08-21T04:30:55;8.45;;;3.78;;
61523;SDS011;47393;38.758;-9.164;2022-08-21T04:32:57;6.03;;;3.35;;
61523;SDS011;47393;38.758;-9.164;2022-08-21T04:34:59;10.07;;;3.65;;
61523;SDS011;47393;38.758;-9.164;2022-08-21T04:37:01;6.63;;;3.80;;
61523;SDS011;47393;38.758;-9.164;2022-08-21T04:39:01;9.85;;;3.40;;
61523;SDS011;47393;38.758;-9.164;2022-08-21T04:41:03;10.27;;;3.40;;
61523;SDS011;47393;38.758;-9.164;2022-08-21T04:43:05;14.85;;;4.40;;
61523;SDS011;47393;38.758;-9.164;2022-08-21T04:45:08;11.25;;;4.13;;
61523;SDS011;47393;38.758;-9.164;2022-08-21T04:47:09;10.20;;;3.97;;
61523;SDS011;47393;38.758;-9.164;2022-08-21T04:49:10;10.38;;;3.58;;
61523;SDS011;47393;38.758;-9.164;2022-08-21T04:51:16;20.35;;;4.53;;
61523;SDS011;47393;38.758;-9.164;2022-08-21T04:53:24;5.97;;;3.30;;
61523;SDS011;47393;38.758;-9.164;2022-08-21T04:55:35;10.73;;;3.78;;
61523;SDS011;47393;38.758;-9.164;2022-08-21T04:57:36;12.45;;;4.40;;
61523;SDS011;47393;38.758;-9.164;2022-08-21T04:59:41;7.78;;;3.53;;
61523;SDS011;47393;38.758;-9.164;2022-08-21T05:01:45;9.02;;;4.05;;
61523;SDS011;47393;38.758;-9.164;2022-08-21T05:03:47;11.13;;;4.40;;
61523;SDS011;47393;38.758;-9.164;2022-08-21T05:05:50;14.13;;;4.80;;
61523;SDS011;47393;38.758;-9.164;2022-08-21T05:07:52;15.30;;;4.60;;
61523;SDS011;47393;38.758;-9.164;2022-08-21T05:09:53;12.95;;;4.35;;
61523;SDS011;47393;38.758;-9.164;2022-08-21T05:11:54;14.48;;;4.60;;
61523;SDS011;47393;38.758;-9.164;2022-08-21T05:13:56;12.60;;;4.35;;
61523;SDS011;47393;38.758;-9.164;2022-08-21T05:16:00;15.15;;;4.22;;
61523;SDS011;47393;38.758;-9.164;2022-08-21T05:18:01;15.43;;;4.45;;
61523;SDS011;47393;38.758;-9.164;2022-08-21T05:20:01;14.07;;;4.32;;
61523;SDS011;47393;38.758;-9.164;2022-08-21T05:22:02;10.90;;;3.65;;
61523;SDS011;47393;38.758;-9.164;2022-08-21T05:24:03;12.10;;;4.25;;
61523;SDS011;47393;38.758;-9.164;2022-08-21T05:26:04;8.95;;;4.10;;
61523;SDS011;47393;38.758;-9.164;2022-08-21T05:28:05;11.10;;;4.10;;
61523;SDS011;47393;38.758;-9.164;2022-08-21T05:30:08;11.65;;;4.30;;
61523;SDS011;47393;38.758;-9.164;2022-08-21T05:32:10;13.85;;;4.45;;
61523;SDS011;47393;38.758;-9.164;2022-08-21T05:34:13;15.30;;;4.45;;
61523;SDS011;47393;38.758;-9.164;2022-08-21T05:36:16;13.25;;;3.78;;
61523;SDS011;47393;38.758;-9.164;2022-08-21T05:38:18;9.75;;;3.97;;
61523;SDS011;47393;38.758;-9.164;2022-08-21T05:40:19;13.50;;;4.50;;
61523;SDS011;47393;38.758;-9.164;2022-08-21T05:42:20;13.68;;;4.13;;
61523;SDS011;47393;38.758;-9.164;2022-08-21T05:44:20;10.43;;;4.15;;
61523;SDS011;47393;38.758;-9.164;2022-08-21T05:46:21;14.18;;;4.10;;
61523;SDS011;47393;38.758;-9.164;2022-08-21T05:48:23;14.20;;;4.30;;
61523;SDS011;47393;38.758;-9.164;2022-08-21T05:50:24;11.73;;;3.70;;
61523;SDS011;47393;38.758;-9.164;2022-08-21T05:52:25;11.07;;;3.97;;
61523;SDS011;47393;38.758;-9.164;2022-08-21T05:54:26;13.60;;;4.28;;
61523;SDS011;47393;38.758;-9.164;2022-08-21T05:56:27;11.18;;;3.80;;
61523;SDS011;47393;38.758;-9.164;2022-08-21T05:58:29;17.40;;;4.20;;
61523;SDS011;47393;38.758;-9.164;2022-08-21T06:00:31;10.05;;;3.88;;
61523;SDS011;47393;38.758;-9.164;2022-08-21T06:02:32;17.15;;;3.92;;
61523;SDS011;47393;38.758;-9.164;2022-08-21T06:04:36;17.55;;;3.95;;
61523;SDS011;47393;38.758;-9.164;2022-08-21T06:08:41;7.30;;;2.85;;
61523;SDS011;47393;38.758;-9.164;2022-08-21T06:10:42;10.88;;;4.00;;
61523;SDS011;47393;38.758;-9.164;2022-08-21T06:12:43;9.85;;;3.50;;
61523;SDS011;47393;38.758;-9.164;2022-08-21T06:14:44;7.93;;;3.42;;
61523;SDS011;47393;38.758;-9.164;2022-08-21T06:16:45;8.85;;;3.17;;
61523;SDS011;47393;38.758;-9.164;2022-08-21T06:18:46;10.38;;;3.50;;
61523;SDS011;47393;38.758;-9.164;2022-08-21T06:20:46;12.45;;;3.22;;
61523;SDS011;47393;38.758;-9.164;2022-08-21T06:22:47;11.30;;;3.25;;
61523;SDS011;47393;38.758;-9.164;2022-08-21T06:24:48;12.18;;;3.78;;
61523;SDS011;47393;38.758;-9.164;2022-08-21T06:26:49;8.85;;;2.60;;
61523;SDS011;47393;38.758;-9.164;2022-08-21T06:28:50;8.10;;;3.03;;
61523;SDS011;47393;38.758;-9.164;2022-08-21T06:30:51;5.57;;;2.95;;
61523;SDS011;47393;38.758;-9.164;2022-08-21T06:32:52;10.98;;;3.05;;
61523;SDS011;47393;38.758;-9.164;2022-08-21T06:34:53;7.38;;;3.22;;
61523;SDS011;47393;38.758;-9.164;2022-08-21T06:36:53;5.70;;;3.17;;
61523;SDS011;47393;38.758;-9.164;2022-08-21T06:38:54;12.32;;;3.30;;
61523;SDS011;47393;38.758;-9.164;2022-08-21T06:40:55;4.22;;;2.75;;
61523;SDS011;47393;38.758;-9.164;2022-08-21T06:43:04;8.48;;;2.58;;
61523;SDS011;47393;38.758;-9.164;2022-08-21T06:45:10;5.60;;;2.20;;
61523;SDS011;47393;38.758;-9.164;2022-08-21T06:47:11;6.00;;;2.20;;
61523;SDS011;47393;38.758;-9.164;2022-08-21T06:49:12;8.20;;;1.90;;
61523;SDS011;47393;38.758;-9.164;2022-08-21T06:51:13;6.68;;;2.97;;
61523;SDS011;47393;38.758;-9.164;2022-08-21T06:53:15;2.88;;;1.80;;
61523;SDS011;47393;38.758;-9.164;2022-08-21T06:55:18;6.28;;;1.65;;
61523;SDS011;47393;38.758;-9.164;2022-08-21T06:57:19;11.77;;;2.22;;
61523;SDS011;47393;38.758;-9.164;2022-08-21T06:59:19;9.98;;;2.58;;
61523;SDS011;47393;38.758;-9.164;2022-08-21T07:01:21;2.65;;;1.65;;
61523;SDS011;47393;38.758;-9.164;2022-08-21T07:03:33;8.18;;;2.22;;
61523;SDS011;47393;38.758;-9.164;2022-08-21T07:05:36;5.03;;;2.15;;
61523;SDS011;47393;38.758;-9.164;2022-08-21T07:07:36;6.13;;;1.90;;
61523;SDS011;47393;38.758;-9.164;2022-08-21T07:09:37;10.98;;;1.80;;
61523;SDS011;47393;38.758;-9.164;2022-08-21T07:11:38;7.40;;;2.42;;
61523;SDS011;47393;38.758;-9.164;2022-08-21T07:13:39;10.90;;;1.90;;
61523;SDS011;47393;38.758;-9.164;2022-08-21T07:15:42;2.83;;;2.10;;
61523;SDS011;47393;38.758;-9.164;2022-08-21T07:17:43;3.88;;;2.03;;
61523;SDS011;47393;38.758;-9.164;2022-08-21T07:19:44;9.52;;;2.33;;
61523;SDS011;47393;38.758;-9.164;2022-08-21T07:21:45;6.75;;;1.92;;
61523;SDS011;47393;38.758;-9.164;2022-08-21T07:23:47;3.83;;;2.05;;
61523;SDS011;47393;38.758;-9.164;2022-08-21T07:25:50;7.90;;;2.03;;
61523;SDS011;47393;38.758;-9.164;2022-08-21T07:27:51;5.95;;;1.92;;
61523;SDS011;47393;38.758;-9.164;2022-08-21T07:29:55;6.20;;;1.58;;
61523;SDS011;47393;38.758;-9.164;2022-08-21T07:31:56;4.82;;;1.90;;
61523;SDS011;47393;38.758;-9.164;2022-08-21T07:33:56;5.25;;;1.80;;
61523;SDS011;47393;38.758;-9.164;2022-08-21T07:35:58;5.35;;;1.55;;
61523;SDS011;47393;38.758;-9.164;2022-08-21T07:37:59;5.45;;;1.95;;
61523;SDS011;47393;38.758;-9.164;2022-08-21T07:40:00;4.03;;;2.05;;
61523;SDS011;47393;38.758;-9.164;2022-08-21T07:42:00;5.82;;;1.65;;
61523;SDS011;47393;38.758;-9.164;2022-08-21T07:44:01;6.95;;;1.45;;
61523;SDS011;47393;38.758;-9.164;2022-08-21T07:46:02;2.92;;;1.45;;
61523;SDS011;47393;38.758;-9.164;2022-08-21T07:48:03;4.60;;;1.55;;
61523;SDS011;47393;38.758;-9.164;2022-08-21T07:50:05;6.78;;;2.03;;
61523;SDS011;47393;38.758;-9.164;2022-08-21T07:52:06;5.53;;;1.65;;
61523;SDS011;47393;38.758;-9.164;2022-08-21T07:54:10;8.68;;;2.05;;
61523;SDS011;47393;38.758;-9.164;2022-08-21T07:56:11;10.65;;;1.75;;
61523;SDS011;47393;38.758;-9.164;2022-08-21T07:58:12;5.25;;;2.10;;
61523;SDS011;47393;38.758;-9.164;2022-08-21T08:00:15;5.18;;;1.65;;
61523;SDS011;47393;38.758;-9.164;2022-08-21T08:02:24;4.50;;;1.48;;
61523;SDS011;47393;38.758;-9.164;2022-08-21T08:04:26;7.60;;;2.28;;
61523;SDS011;47393;38.758;-9.164;2022-08-21T08:06:27;3.17;;;1.85;;
61523;SDS011;47393;38.758;-9.164;2022-08-21T08:08:30;4.30;;;1.55;;
61523;SDS011;47393;38.758;-9.164;2022-08-21T08:10:32;3.60;;;1.75;;
61523;SDS011;47393;38.758;-9.164;2022-08-21T08:12:36;2.65;;;1.50;;
61523;SDS011;47393;38.758;-9.164;2022-08-21T08:14:42;5.40;;;2.10;;
61523;SDS011;47393;38.758;-9.164;2022-08-21T08:16:42;3.45;;;1.63;;
61523;SDS011;47393;38.758;-9.164;2022-08-21T08:18:43;3.30;;;1.95;;
61523;SDS011;47393;38.758;-9.164;2022-08-21T08:20:44;8.40;;;2.00;;
61523;SDS011;47393;38.758;-9.164;2022-08-21T08:22:45;7.60;;;2.22;;
61523;SDS011;47393;38.758;-9.164;2022-08-21T08:24:46;7.25;;;1.80;;
61523;SDS011;47393;38.758;-9.164;2022-08-21T08:26:47;5.45;;;2.15;;
61523;SDS011;47393;38.758;-9.164;2022-08-21T08:28:48;7.18;;;1.90;;
61523;SDS011;47393;38.758;-9.164;2022-08-21T08:30:49;3.03;;;1.35;;
61523;SDS011;47393;38.758;-9.164;2022-08-21T08:32:50;5.43;;;1.98;;
61523;SDS011;47393;38.758;-9.164;2022-08-21T08:34:50;5.47;;;1.60;;
61523;SDS011;47393;38.758;-9.164;2022-08-21T08:36:51;5.30;;;1.90;;
61523;SDS011;47393;38.758;-9.164;2022-08-21T08:38:55;4.78;;;1.58;;
61523;SDS011;47393;38.758;-9.164;2022-08-21T08:41:10;7.18;;;2.50;;
61523;SDS011;47393;38.758;-9.164;2022-08-21T08:43:15;8.25;;;2.50;;
61523;SDS011;47393;38.758;-9.164;2022-08-21T08:45:17;5.90;;;2.42;;
61523;SDS011;47393;38.758;-9.164;2022-08-21T08:47:22;6.22;;;2.08;;
61523;SDS011;47393;38.758;-9.164;2022-08-21T08:52:11;5.30;;;2.45;;
61523;SDS011;47393;38.758;-9.164;2022-08-21T08:54:26;3.50;;;1.95;;
61523;SDS011;47393;38.758;-9.164;2022-08-21T08:56:32;7.60;;;2.75;;
61523;SDS011;47393;38.758;-9.164;2022-08-21T08:58:37;4.28;;;1.90;;
61523;SDS011;47393;38.758;-9.164;2022-08-21T09:00:44;4.97;;;2.00;;
61523;SDS011;47393;38.758;-9.164;2022-08-21T09:02:50;5.45;;;1.75;;
61523;SDS011;47393;38.758;-9.164;2022-08-21T09:04:53;1.98;;;1.55;;
61523;SDS011;47393;38.758;-9.164;2022-08-21T09:14:47;5.40;;;2.28;;
61523;SDS011;47393;38.758;-9.164;2022-08-21T09:19:49;4.90;;;2.10;;
61523;SDS011;47393;38.758;-9.164;2022-08-21T09:22:08;5.25;;;1.92;;
61523;SDS011;47393;38.758;-9.164;2022-08-21T09:29:01;9.27;;;2.13;;
61523;SDS011;47393;38.758;-9.164;2022-08-21T09:31:05;11.07;;;1.98;;
61523;SDS011;47393;38.758;-9.164;2022-08-21T09:33:09;3.70;;;1.92;;
61523;SDS011;47393;38.758;-9.164;2022-08-21T09:35:16;3.38;;;1.55;;
61523;SDS011;47393;38.758;-9.164;2022-08-21T09:37:19;2.22;;;1.48;;
61523;SDS011;47393;38.758;-9.164;2022-08-21T09:39:24;6.43;;;1.95;;
61523;SDS011;47393;38.758;-9.164;2022-08-21T09:41:31;4.22;;;1.90;;
61523;SDS011;47393;38.758;-9.164;2022-08-21T09:43:33;7.93;;;2.30;;
61523;SDS011;47393;38.758;-9.164;2022-08-21T09:45:35;4.88;;;2.60;;
61523;SDS011;47393;38.758;-9.164;2022-08-21T09:47:36;6.78;;;2.50;;
61523;SDS011;47393;38.758;-9.164;2022-08-21T09:49:39;4.35;;;2.22;;
61523;SDS011;47393;38.758;-9.164;2022-08-21T09:51:49;5.03;;;2.35;;
61523;SDS011;47393;38.758;-9.164;2022-08-21T09:54:14;11.95;;;2.53;;
61523;SDS011;47393;38.758;-9.164;2022-08-21T09:56:24;8.55;;;2.13;;
61523;SDS011;47393;38.758;-9.164;2022-08-21T09:58:46;6.47;;;2.45;;
61523;SDS011;47393;38.758;-9.164;2022-08-21T10:00:56;6.75;;;2.47;;
61523;SDS011;47393;38.758;-9.164;2022-08-21T10:03:09;7.53;;;2.75;;
61523;SDS011;47393;38.758;-9.164;2022-08-21T10:07:21;5.45;;;2.53;;
61523;SDS011;47393;38.758;-9.164;2022-08-21T10:09:24;4.07;;;2.42;;
61523;SDS011;47393;38.758;-9.164;2022-08-21T10:11:27;8.30;;;2.40;;
61523;SDS011;47393;38.758;-9.164;2022-08-21T10:13:33;9.40;;;2.53;;
61523;SDS011;47393;38.758;-9.164;2022-08-21T10:15:51;11.90;;;2.92;;
61523;SDS011;47393;38.758;-9.164;2022-08-21T10:18:20;3.80;;;2.70;;
61523;SDS011;47393;38.758;-9.164;2022-08-21T10:20:47;6.47;;;2.85;;
61523;SDS011;47393;38.758;-9.164;2022-08-21T10:32:04;8.90;;;2.97;;
61523;SDS011;47393;38.758;-9.164;2022-08-21T10:36:22;4.38;;;2.38;;
61523;SDS011;47393;38.758;-9.164;2022-08-21T10:38:46;6.70;;;2.72;;
61523;SDS011;47393;38.758;-9.164;2022-08-21T10:41:09;7.22;;;2.50;;
61523;SDS011;47393;38.758;-9.164;2022-08-21T10:48:02;6.95;;;2.55;;
61523;SDS011;47393;38.758;-9.164;2022-08-21T10:59:43;5.80;;;2.08;;
61523;SDS011;47393;38.758;-9.164;2022-08-21T11:06:23;7.32;;;2.60;;
61523;SDS011;47393;38.758;-9.164;2022-08-21T11:10:42;14.55;;;2.78;;
61523;SDS011;47393;38.758;-9.164;2022-08-21T11:12:54;15.35;;;2.72;;
61523;SDS011;47393;38.758;-9.164;2022-08-21T11:15:03;14.23;;;2.92;;
61523;SDS011;47393;38.758;-9.164;2022-08-21T11:17:30;11.93;;;3.30;;
61523;SDS011;47393;38.758;-9.164;2022-08-21T11:20:10;8.93;;;2.97;;
61523;SDS011;47393;38.758;-9.164;2022-08-21T11:22:18;4.80;;;2.85;;
61523;SDS011;47393;38.758;-9.164;2022-08-21T11:26:37;6.63;;;2.83;;
61523;SDS011;47393;38.758;-9.164;2022-08-21T11:28:48;10.40;;;2.28;;
61523;SDS011;47393;38.758;-9.164;2022-08-21T11:38:08;4.30;;;2.20;;
61523;SDS011;47393;38.758;-9.164;2022-08-21T11:51:48;3.80;;;1.98;;
61523;SDS011;47393;38.758;-9.164;2022-08-21T11:54:08;5.97;;;2.33;;
61523;SDS011;47393;38.758;-9.164;2022-08-21T11:56:38;9.80;;;2.33;;
61523;SDS011;47393;38.758;-9.164;2022-08-21T11:58:47;6.95;;;2.00;;
61523;SDS011;47393;38.758;-9.164;2022-08-21T12:00:55;4.05;;;2.22;;
61523;SDS011;47393;38.758;-9.164;2022-08-21T12:03:05;8.77;;;2.47;;
61523;SDS011;47393;38.758;-9.164;2022-08-21T12:05:25;8.05;;;2.65;;
61523;SDS011;47393;38.758;-9.164;2022-08-21T12:07:39;2.90;;;1.92;;
61523;SDS011;47393;38.758;-9.164;2022-08-21T12:09:51;4.25;;;1.83;;
61523;SDS011;47393;38.758;-9.164;2022-08-21T12:12:07;5.45;;;2.47;;
61523;SDS011;47393;38.758;-9.164;2022-08-21T12:14:23;5.18;;;2.28;;
61523;SDS011;47393;38.758;-9.164;2022-08-21T12:16:38;7.82;;;2.13;;
61523;SDS011;47393;38.758;-9.164;2022-08-21T12:18:46;2.38;;;2.17;;
61523;SDS011;47393;38.758;-9.164;2022-08-21T12:25:11;3.28;;;2.50;;
61523;SDS011;47393;38.758;-9.164;2022-08-21T12:29:30;11.70;;;2.85;;
61523;SDS011;47393;38.758;-9.164;2022-08-21T12:31:35;10.45;;;2.83;;
61523;SDS011;47393;38.758;-9.164;2022-08-21T12:33:51;11.93;;;2.50;;
61523;SDS011;47393;38.758;-9.164;2022-08-21T12:36:29;2.58;;;1.80;;
61523;SDS011;47393;38.758;-9.164;2022-08-21T12:38:31;3.05;;;1.95;;
61523;SDS011;47393;38.758;-9.164;2022-08-21T12:40:50;3.70;;;2.42;;
61523;SDS011;47393;38.758;-9.164;2022-08-21T12:42:55;3.92;;;2.13;;
61523;SDS011;47393;38.758;-9.164;2022-08-21T12:45:03;6.18;;;2.03;;
61523;SDS011;47393;38.758;-9.164;2022-08-21T12:47:15;4.30;;;2.40;;
61523;SDS011;47393;38.758;-9.164;2022-08-21T12:49:35;3.70;;;1.87;;
61523;SDS011;47393;38.758;-9.164;2022-08-21T12:54:21;7.72;;;1.73;;
61523;SDS011;47393;38.758;-9.164;2022-08-21T12:56:31;1.80;;;1.63;;
61523;SDS011;47393;38.758;-9.164;2022-08-21T12:58:35;6.15;;;2.00;;
61523;SDS011;47393;38.758;-9.164;2022-08-21T13:00:39;2.08;;;1.90;;
61523;SDS011;47393;38.758;-9.164;2022-08-21T13:02:56;7.35;;;2.30;;
61523;SDS011;47393;38.758;-9.164;2022-08-21T13:04:58;2.25;;;2.10;;
61523;SDS011;47393;38.758;-9.164;2022-08-21T13:07:10;9.10;;;2.25;;
61523;SDS011;47393;38.758;-9.164;2022-08-21T13:09:14;4.43;;;1.83;;
61523;SDS011;47393;38.758;-9.164;2022-08-21T13:11:18;10.18;;;2.33;;
61523;SDS011;47393;38.758;-9.164;2022-08-21T13:13:24;7.80;;;2.20;;
61523;SDS011;47393;38.758;-9.164;2022-08-21T13:15:30;3.38;;;2.20;;
61523;SDS011;47393;38.758;-9.164;2022-08-21T13:17:36;5.43;;;2.30;;
61523;SDS011;47393;38.758;-9.164;2022-08-21T13:19:58;3.17;;;2.90;;
61523;SDS011;47393;38.758;-9.164;2022-08-21T13:22:10;2.92;;;2.08;;
61523;SDS011;47393;38.758;-9.164;2022-08-21T13:26:27;5.13;;;2.30;;
61523;SDS011;47393;38.758;-9.164;2022-08-21T13:28:34;7.57;;;2.95;;
61523;SDS011;47393;38.758;-9.164;2022-08-21T13:30:39;3.65;;;2.35;;
61523;SDS011;47393;38.758;-9.164;2022-08-21T13:32:45;2.75;;;2.55;;
61523;SDS011;47393;38.758;-9.164;2022-08-21T13:34:50;5.43;;;2.13;;
61523;SDS011;47393;38.758;-9.164;2022-08-21T13:36:55;3.25;;;2.40;;
61523;SDS011;47393;38.758;-9.164;2022-08-21T13:39:02;4.80;;;2.63;;
61523;SDS011;47393;38.758;-9.164;2022-08-21T13:43:12;4.30;;;2.78;;
61523;SDS011;47393;38.758;-9.164;2022-08-21T13:45:22;3.50;;;2.95;;